Time;durP1;ratioP1;P1;durP2;ratioP2;P2;SDS_P1;SDS_P2;PMS_P1;PMS_P2;Temp;Humidity;BMP_temperature;BMP_pressure;BME280_temperature;BME280_humidity;BME280_pressure;Samples;Min_cycle;Max_cycle;Signal;HPM_P1;HPM_P2
2021/04/22 00:01:00;;;;;;;15.93;3.93;;;5.20;92.00;;;;;;4377304;32;20168;-59
2021/04/22 00:03:26;;;;;;;17.93;3.83;;;5.20;91.80;;;;;;4374830;32;20186;-62
2021/04/22 00:05:52;;;;;;;19.83;4.10;;;5.20;91.30;;;;;;4375368;32;20182;-61
2021/04/22 00:08:19;;;;;;;18.97;4.60;;;5.20;92.10;;;;;;4375185;32;20160;-63
2021/04/22 00:10:47;;;;;;;17.10;4.23;;;5.10;91.90;;;;;;4375074;32;20233;-58
2021/04/22 00:13:17;;;;;;;20.07;4.00;;;5.10;92.70;;;;;;4374829;32;20195;-63
2021/04/22 00:15:44;;;;;;;16.20;4.37;;;5.20;92.40;;;;;;4377031;32;20560;-60
2021/04/22 00:18:12;;;;;;;18.70;4.03;;;5.30;92.40;;;;;;4375387;32;20758;-60
2021/04/22 00:20:40;;;;;;;19.63;4.47;;;5.30;92.50;;;;;;4375397;32;20207;-61
2021/04/22 00:23:07;;;;;;;20.57;4.83;;;5.30;91.80;;;;;;4376480;32;20179;-62
2021/04/22 00:25:37;;;;;;;25.77;4.30;;;5.30;92.50;;;;;;4375580;32;20243;-61
2021/04/22 00:28:05;;;;;;;15.23;4.10;;;5.20;92.30;;;;;;4375313;32;20207;-64
2021/04/22 00:30:41;;;;;;;20.47;4.37;;;5.10;92.60;;;;;;4376257;32;20210;-59
2021/04/22 00:33:13;;;;;;;16.27;4.27;;;5.10;92.70;;;;;;4374184;32;20191;-62
2021/04/22 00:35:42;;;;;;;17.60;4.53;;;5.00;92.60;;;;;;4376101;32;20195;-60
2021/04/22 00:38:09;;;;;;;16.43;4.27;;;5.00;92.90;;;;;;4375279;32;20273;-60
2021/04/22 00:40:36;;;;;;;13.50;3.90;;;5.00;93.00;;;;;;4375045;32;20180;-61
2021/04/22 00:43:04;;;;;;;13.33;4.03;;;5.00;93.10;;;;;;4374222;32;20164;-63
2021/04/22 00:45:31;;;;;;;14.60;4.47;;;5.00;92.80;;;;;;4372638;32;20188;-59
2021/04/22 00:47:58;;;;;;;18.83;4.10;;;5.00;92.40;;;;;;4374304;32;20164;-63
2021/04/22 00:50:29;;;;;;;23.07;5.67;;;5.10;92.30;;;;;;4374648;32;20220;-63
2021/04/22 00:52:56;;;;;;;16.17;4.27;;;5.10;91.70;;;;;;4384674;32;20168;-61
2021/04/22 00:55:23;;;;;;;25.27;5.33;;;5.20;91.50;;;;;;4374042;32;20152;-63
2021/04/22 00:57:50;;;;;;;18.10;4.57;;;5.20;92.20;;;;;;4375052;32;20156;-62
2021/04/22 01:00:19;;;;;;;23.03;5.17;;;5.10;91.40;;;;;;4374862;32;20153;-60
2021/04/22 01:02:47;;;;;;;16.40;4.70;;;5.00;91.60;;;;;;4375154;32;20186;-62
2021/04/22 01:05:20;;;;;;;17.33;5.20;;;5.00;91.80;;;;;;4376721;32;20487;-59
2021/04/22 01:07:47;;;;;;;13.23;4.53;;;4.90;92.00;;;;;;4377559;32;20631;-59
2021/04/22 01:10:17;;;;;;;19.97;4.47;;;5.00;92.70;;;;;;4377407;32;20167;-60
2021/04/22 01:12:45;;;;;;;25.30;5.07;;;5.00;91.80;;;;;;4376995;32;20545;-61
2021/04/22 01:15:16;;;;;;;17.87;4.20;;;5.10;91.70;;;;;;4376831;32;20262;-60
2021/04/22 01:17:44;;;;;;;21.07;5.57;;;5.20;91.90;;;;;;4377584;32;20176;-62
2021/04/22 01:20:13;;;;;;;15.73;4.27;;;5.20;92.00;;;;;;4376976;32;20157;-63
2021/04/22 01:22:40;;;;;;;23.40;5.97;;;5.30;91.50;;;;;;4377654;32;20649;-62
2021/04/22 01:25:09;;;;;;;20.90;5.27;;;5.30;91.60;;;;;;4370635;32;20219;-59
2021/04/22 01:27:37;;;;;;;17.87;4.83;;;5.30;92.20;;;;;;4377400;32;20221;-62
2021/04/22 01:30:07;;;;;;;22.77;5.07;;;5.40;91.70;;;;;;4377607;32;20202;-63
2021/04/22 01:32:39;;;;;;;18.93;4.37;;;5.50;92.10;;;;;;4377247;32;20194;-59
2021/04/22 01:35:07;;;;;;;15.40;4.40;;;5.40;91.40;;;;;;4376363;32;20180;-63
2021/04/22 01:37:35;;;;;;;17.73;4.73;;;5.50;91.10;;;;;;4376905;32;20184;-61
2021/04/22 01:40:04;;;;;;;22.40;5.37;;;5.40;90.80;;;;;;4377555;32;20203;-62
2021/04/22 01:42:30;;;;;;;19.17;5.03;;;5.40;91.20;;;;;;4377407;32;20164;-61
2021/04/22 01:44:57;;;;;;;15.20;5.30;;;5.40;91.00;;;;;;4376497;32;20183;-63
2021/04/22 01:47:23;;;;;;;20.43;4.67;;;5.40;91.80;;;;;;4376942;32;20555;-60
2021/04/22 01:49:49;;;;;;;12.70;4.33;;;5.40;92.00;;;;;;4376752;32;20220;-60
2021/04/22 01:52:18;;;;;;;18.53;4.93;;;5.30;91.60;;;;;;4377047;32;20160;-63
2021/04/22 01:54:44;;;;;;;16.27;4.87;;;5.20;91.70;;;;;;4377129;32;20179;-63
2021/04/22 01:57:13;;;;;;;24.00;5.37;;;5.20;91.60;;;;;;4376411;32;20173;-58
2021/04/22 01:59:39;;;;;;;22.57;5.73;;;5.10;91.50;;;;;;4376926;32;20168;-59
2021/04/22 02:02:06;;;;;;;16.10;4.70;;;5.10;92.20;;;;;;4376943;32;20165;-59
2021/04/22 02:04:33;;;;;;;14.40;4.70;;;5.20;92.60;;;;;;4376704;32;20167;-62
2021/04/22 02:07:03;;;;;;;18.60;4.90;;;5.30;92.80;;;;;;4375870;32;20160;-61
2021/04/22 02:09:29;;;;;;;19.87;5.83;;;5.30;92.50;;;;;;4376608;32;20476;-63
2021/04/22 02:11:56;;;;;;;22.53;4.83;;;5.30;92.70;;;;;;4362091;32;20221;-62
2021/04/22 02:14:23;;;;;;;22.80;4.70;;;5.30;92.70;;;;;;4362067;32;20200;-60
2021/04/22 02:16:49;;;;;;;18.10;4.43;;;5.50;92.50;;;;;;4372063;32;20169;-60
2021/04/22 02:19:16;;;;;;;13.70;4.43;;;5.40;92.80;;;;;;4376797;32;20172;-61
2021/04/22 02:21:42;;;;;;;18.93;4.93;;;5.50;92.70;;;;;;4376740;32;20218;-61
2021/04/22 02:24:10;;;;;;;17.97;5.00;;;5.60;92.70;;;;;;4375943;32;20165;-62
2021/04/22 02:26:36;;;;;;;15.63;5.13;;;5.60;92.80;;;;;;4375936;32;20157;-61
2021/04/22 02:29:03;;;;;;;21.17;5.33;;;5.60;92.60;;;;;;4375925;32;20179;-61
2021/04/22 02:31:31;;;;;;;22.23;5.10;;;5.70;92.60;;;;;;4376753;32;20194;-60
2021/04/22 02:34:00;;;;;;;22.33;5.60;;;5.70;92.50;;;;;;4376611;32;20152;-59
2021/04/22 02:36:26;;;;;;;17.47;5.10;;;5.70;92.50;;;;;;4375980;32;20207;-61
2021/04/22 02:38:52;;;;;;;19.77;4.57;;;5.80;92.60;;;;;;4375998;32;20212;-61
2021/04/22 02:41:19;;;;;;;13.03;4.50;;;5.80;92.40;;;;;;4376300;32;20179;-60
2021/04/22 02:43:45;;;;;;;19.77;5.03;;;5.90;92.30;;;;;;4375906;32;20148;-59
2021/04/22 02:46:12;;;;;;;17.23;4.67;;;5.90;92.00;;;;;;4376326;32;20255;-61
2021/04/22 02:48:39;;;;;;;13.80;4.50;;;5.90;91.80;;;;;;4375905;32;20187;-63
2021/04/22 02:51:05;;;;;;;13.83;4.93;;;5.90;92.30;;;;;;4375548;32;20241;-60
2021/04/22 02:53:33;;;;;;;18.57;5.43;;;5.90;92.40;;;;;;4376503;32;20233;-62
2021/04/22 02:55:59;;;;;;;14.43;4.40;;;5.90;92.40;;;;;;4376057;32;20197;-60
2021/04/22 02:58:29;;;;;;;16.73;4.67;;;5.90;92.50;;;;;;4375068;32;20168;-60
2021/04/22 03:00:55;;;;;;;23.50;5.47;;;5.90;92.30;;;;;;4376826;32;20208;-60
2021/04/22 03:03:22;;;;;;;12.80;4.30;;;5.80;92.30;;;;;;4375469;32;20561;-62
2021/04/22 03:05:50;;;;;;;15.70;5.57;;;5.70;92.50;;;;;;4376260;32;20218;-61
2021/04/22 03:08:17;;;;;;;16.27;5.00;;;5.70;92.90;;;;;;4375438;32;20171;-61
2021/04/22 03:10:44;;;;;;;16.70;5.13;;;5.60;93.00;;;;;;4375605;32;20172;-63
2021/04/22 03:13:11;;;;;;;17.47;4.73;;;5.60;93.20;;;;;;4376013;32;20168;-59
2021/04/22 03:15:37;;;;;;;16.23;4.73;;;5.50;93.00;;;;;;4376213;32;20171;-59
2021/04/22 03:18:04;;;;;;;11.27;4.27;;;5.50;93.40;;;;;;4374663;32;20179;-62
2021/04/22 03:20:34;;;;;;;20.10;4.87;;;5.40;93.50;;;;;;4375394;32;20164;-62
2021/04/22 03:23:01;;;;;;;18.03;5.13;;;5.50;92.90;;;;;;4375589;32;20165;-60
2021/04/22 03:25:28;;;;;;;17.83;5.40;;;5.50;92.90;;;;;;4376008;32;20191;-63
2021/04/22 03:27:55;;;;;;;17.73;5.10;;;5.40;92.90;;;;;;4374723;32;20168;-62
2021/04/22 03:30:25;;;;;;;19.07;5.23;;;5.40;92.90;;;;;;4375703;32;20616;-60
2021/04/22 03:32:51;;;;;;;18.33;4.80;;;5.40;93.20;;;;;;4374590;32;20297;-64
2021/04/22 03:35:18;;;;;;;19.60;5.00;;;5.40;92.90;;;;;;4375613;32;20463;-61
2021/04/22 03:37:45;;;;;;;17.53;5.87;;;5.40;93.00;;;;;;4376256;32;20629;-58
2021/04/22 03:40:17;;;;;;;11.33;4.90;;;5.40;93.00;;;;;;4377584;32;20249;-60
2021/04/22 03:42:43;;;;;;;18.77;4.47;;;5.50;93.00;;;;;;4376892;32;20525;-61
2021/04/22 03:45:12;;;;;;;19.47;5.33;;;5.60;92.90;;;;;;4376306;32;20153;-63
2021/04/22 03:47:39;;;;;;;19.70;5.50;;;5.60;92.60;;;;;;4374154;32;20229;-63
2021/04/22 03:50:07;;;;;;;20.43;4.30;;;5.70;92.50;;;;;;4374830;32;20191;-62
2021/04/22 03:52:36;;;;;;;17.80;4.57;;;5.70;92.40;;;;;;4375796;32;20164;-61
2021/04/22 03:55:05;;;;;;;17.57;4.90;;;5.80;92.40;;;;;;4376397;32;20211;-63
2021/04/22 03:57:37;;;;;;;14.30;4.37;;;5.70;92.30;;;;;;4376000;32;20191;-60
2021/04/22 04:00:07;;;;;;;18.70;5.50;;;5.70;92.30;;;;;;4374298;32;20155;-63
2021/04/22 04:02:35;;;;;;;21.23;5.27;;;5.70;92.30;;;;;;4374724;32;20160;-60
2021/04/22 04:05:53;;;;;;;19.20;4.33;;;5.70;92.40;;;;;;4374725;32;20214;-60
2021/04/22 04:08:19;;;;;;;14.93;4.07;;;5.70;92.40;;;;;;4357829;33;20224;-59
2021/04/22 04:10:46;;;;;;;17.40;5.03;;;5.90;92.50;;;;;;4357656;33;20199;-59
2021/04/22 04:13:13;;;;;;;18.07;5.23;;;5.90;92.10;;;;;;4357856;33;20259;-60
2021/04/22 04:15:40;;;;;;;15.67;3.73;;;5.90;92.00;;;;;;4358562;33;20169;-59
2021/04/22 04:18:06;;;;;;;15.23;4.27;;;5.90;92.10;;;;;;4358531;33;20183;-60
2021/04/22 04:20:37;;;;;;;9.33;3.90;;;6.10;92.10;;;;;;4358809;33;20168;-60
2021/04/22 04:23:04;;;;;;;11.30;4.37;;;6.00;91.80;;;;;;4359836;33;20176;-60
2021/04/22 04:25:30;;;;;;;16.80;4.00;;;6.00;91.60;;;;;;4357861;33;20199;-60
2021/04/22 04:27:56;;;;;;;14.23;3.80;;;6.00;91.70;;;;;;4357798;33;20243;-59
2021/04/22 04:30:24;;;;;;;16.77;4.47;;;6.00;91.70;;;;;;4357369;33;20728;-60
2021/04/22 04:32:50;;;;;;;12.70;4.03;;;6.10;91.60;;;;;;4357925;33;20169;-59
2021/04/22 04:35:17;;;;;;;15.30;4.47;;;6.10;91.50;;;;;;4357754;33;20168;-59
2021/04/22 04:37:46;;;;;;;14.40;3.77;;;6.20;91.50;;;;;;4358341;32;20164;-60
2021/04/22 04:40:15;;;;;;;17.33;3.90;;;6.30;91.30;;;;;;4359944;33;20208;-60
2021/04/22 04:42:42;;;;;;;15.20;3.37;;;6.30;91.20;;;;;;4360835;33;20210;-60
2021/04/22 04:45:12;;;;;;;13.33;3.20;;;6.30;91.10;;;;;;4371099;32;20199;-59
2021/04/22 04:47:39;;;;;;;14.50;3.63;;;6.30;91.00;;;;;;4376327;32;20208;-60
2021/04/22 04:50:07;;;;;;;19.73;3.60;;;6.30;90.80;;;;;;4375609;32;20160;-61
2021/04/22 04:52:35;;;;;;;16.90;3.30;;;6.20;90.80;;;;;;4377832;32;20178;-62
2021/04/22 04:55:03;;;;;;;16.27;3.90;;;6.10;90.60;;;;;;4377682;32;20191;-60
2021/04/22 04:57:29;;;;;;;12.47;3.63;;;6.30;90.70;;;;;;4377703;32;20179;-60
2021/04/22 04:59:58;;;;;;;12.53;3.77;;;6.40;90.50;;;;;;4377125;32;20226;-63
2021/04/22 05:02:25;;;;;;;10.93;3.00;;;6.40;90.70;;;;;;4377980;32;20261;-60
2021/04/22 05:04:52;;;;;;;9.53;3.03;;;6.30;90.10;;;;;;4378537;32;20503;-60
2021/04/22 05:07:18;;;;;;;16.43;3.70;;;6.30;90.30;;;;;;4377209;32;20172;-61
2021/04/22 05:09:44;;;;;;;17.37;3.40;;;6.40;90.10;;;;;;4378858;32;20175;-59
2021/04/22 05:12:11;;;;;;;11.97;2.60;;;6.50;90.00;;;;;;4377212;32;20156;-59
2021/04/22 05:14:38;;;;;;;14.27;3.50;;;6.40;89.30;;;;;;4377458;32;20524;-58
2021/04/22 05:17:04;;;;;;;15.97;3.63;;;6.50;89.50;;;;;;4377835;32;20208;-61
2021/04/22 05:19:30;;;;;;;16.67;4.10;;;6.50;88.80;;;;;;4376802;32;20216;-63
2021/04/22 05:21:57;;;;;;;11.77;3.50;;;6.40;89.00;;;;;;4377015;32;20144;-59
2021/04/22 05:24:25;;;;;;;20.20;3.37;;;6.40;88.50;;;;;;4376312;32;20222;-61
2021/04/22 05:26:52;;;;;;;14.13;3.50;;;6.60;88.00;;;;;;4376476;32;20252;-61
2021/04/22 05:29:18;;;;;;;15.43;3.60;;;6.60;88.10;;;;;;4375500;32;20224;-63
2021/04/22 05:31:44;;;;;;;18.20;3.03;;;6.60;88.00;;;;;;4374124;32;20277;-60
2021/04/22 05:34:11;;;;;;;16.20;2.97;;;6.70;87.20;;;;;;4374896;32;20239;-59
2021/04/22 05:36:41;;;;;;;10.43;3.20;;;6.80;87.30;;;;;;4375189;32;20148;-61
2021/04/22 05:39:08;;;;;;;12.50;3.30;;;7.00;86.10;;;;;;4374821;32;20478;-60
2021/04/22 05:41:41;;;;;;;9.40;2.63;;;7.10;85.90;;;;;;4375516;32;20160;-60
2021/04/22 05:44:08;;;;;;;10.03;3.40;;;7.10;85.90;;;;;;4372302;32;20188;-60
2021/04/22 05:46:35;;;;;;;13.93;3.40;;;7.10;85.50;;;;;;4374956;32;20195;-60
2021/04/22 05:49:02;;;;;;;12.07;2.60;;;7.20;85.80;;;;;;4375240;32;20672;-61
2021/04/22 05:51:28;;;;;;;14.47;3.90;;;7.30;85.30;;;;;;4374863;32;20168;-59
2021/04/22 05:53:55;;;;;;;17.90;3.10;;;7.40;84.00;;;;;;4375882;32;20220;-60
2021/04/22 05:56:24;;;;;;;11.60;2.53;;;7.50;84.90;;;;;;4374647;32;20232;-62
2021/04/22 05:58:50;;;;;;;11.03;2.80;;;7.50;84.80;;;;;;4375401;32;20246;-60
2021/04/22 06:01:19;;;;;;;13.87;3.00;;;7.70;83.90;;;;;;4377001;32;20233;-60
2021/04/22 06:03:46;;;;;;;16.40;3.57;;;7.80;83.50;;;;;;4375632;32;20176;-60
2021/04/22 06:06:12;;;;;;;14.83;3.70;;;7.70;83.00;;;;;;4375080;32;20199;-59
2021/04/22 06:08:38;;;;;;;18.87;3.30;;;7.80;82.80;;;;;;4375226;32;20250;-60
2021/04/22 06:11:05;;;;;;;15.83;3.03;;;8.10;82.00;;;;;;4374980;32;20191;-60
2021/04/22 06:13:34;;;;;;;16.50;3.33;;;8.20;80.30;;;;;;4375547;32;20218;-57
2021/04/22 06:16:00;;;;;;;14.73;3.20;;;8.30;80.40;;;;;;4376309;32;20584;-61
2021/04/22 06:18:26;;;;;;;15.87;4.33;;;8.30;80.40;;;;;;4375525;32;20655;-62
2021/04/22 06:20:53;;;;;;;15.77;3.87;;;8.10;81.30;;;;;;4374831;32;20182;-63
2021/04/22 06:23:19;;;;;;;16.10;3.33;;;8.40;80.90;;;;;;4376719;32;20569;-61
2021/04/22 06:25:46;;;;;;;13.53;2.87;;;8.60;79.20;;;;;;4376906;32;20171;-62
2021/04/22 06:28:12;;;;;;;14.50;3.87;;;8.70;78.00;;;;;;4376951;32;20627;-60
2021/04/22 06:30:39;;;;;;;14.37;2.50;;;8.80;78.60;;;;;;4377034;32;20572;-60
2021/04/22 06:33:06;;;;;;;12.63;2.80;;;8.80;78.00;;;;;;4377276;32;20183;-62
2021/04/22 06:35:36;;;;;;;9.13;2.67;;;8.40;78.70;;;;;;4378253;32;20592;-62
2021/04/22 06:38:06;;;;;;;14.53;2.87;;;8.50;79.60;;;;;;4376100;32;20152;-59
2021/04/22 06:40:37;;;;;;;10.87;2.33;;;8.50;78.40;;;;;;4376492;32;20203;-62
2021/04/22 06:43:05;;;;;;;15.13;3.00;;;8.40;79.20;;;;;;4375666;32;20214;-61
2021/04/22 06:45:31;;;;;;;20.07;3.90;;;8.90;79.10;;;;;;4376296;32;20171;-61
2021/04/22 06:47:58;;;;;;;7.67;2.20;;;9.50;77.50;;;;;;4376242;32;20152;-58
2021/04/22 06:50:31;;;;;;;13.13;2.53;;;10.00;76.80;;;;;;4376172;32;20164;-62
2021/04/22 06:53:00;;;;;;;17.50;2.77;;;10.10;74.30;;;;;;4377472;32;20157;-60
2021/04/22 06:55:29;;;;;;;13.43;2.37;;;9.90;73.60;;;;;;4376704;32;20156;-63
2021/04/22 06:57:59;;;;;;;16.73;2.90;;;9.80;74.20;;;;;;4376401;32;20180;-61
2021/04/22 07:00:28;;;;;;;12.83;2.60;;;9.40;74.00;;;;;;4375986;32;20218;-63
2021/04/22 07:02:54;;;;;;;11.87;2.60;;;9.60;74.80;;;;;;4375018;32;20177;-60
2021/04/22 07:05:22;;;;;;;9.83;2.90;;;9.20;74.40;;;;;;4375875;32;20497;-60
2021/04/22 07:07:48;;;;;;;13.43;2.50;;;8.90;76.50;;;;;;4375872;32;20156;-61
2021/04/22 07:10:15;;;;;;;8.83;2.73;;;9.40;76.90;;;;;;4375844;32;20167;-59
2021/04/22 07:12:42;;;;;;;12.13;2.90;;;9.70;74.00;;;;;;4375002;32;20561;-59
2021/04/22 07:15:10;;;;;;;9.60;2.60;;;9.60;72.50;;;;;;4376746;32;20519;-60
2021/04/22 07:17:37;;;;;;;7.63;2.77;;;10.10;71.80;;;;;;4375297;32;20217;-61
2021/04/22 07:20:07;;;;;;;15.50;3.20;;;10.20;70.10;;;;;;4376086;32;20576;-61
2021/04/22 07:22:34;;;;;;;8.87;2.80;;;9.90;70.90;;;;;;4375769;32;20588;-62
2021/04/22 07:25:02;;;;;;;16.83;2.70;;;10.00;72.80;;;;;;4375024;32;20161;-61
2021/04/22 07:27:28;;;;;;;14.90;2.93;;;9.90;72.50;;;;;;4376626;32;20145;-62
2021/04/22 07:29:56;;;;;;;7.90;2.43;;;10.30;71.90;;;;;;4375317;32;20160;-62
2021/04/22 07:32:27;;;;;;;11.20;2.97;;;10.80;69.50;;;;;;4375271;32;20207;-63
2021/04/22 07:34:53;;;;;;;11.50;3.10;;;9.70;72.30;;;;;;4375316;32;20152;-62
2021/04/22 07:37:20;;;;;;;8.17;2.43;;;10.00;71.90;;;;;;4375687;32;20599;-60
2021/04/22 07:39:54;;;;;;;14.20;2.67;;;10.00;70.90;;;;;;4375471;32;20170;-62
2021/04/22 07:42:23;;;;;;;8.93;2.63;;;10.40;69.60;;;;;;4376073;32;20194;-61
2021/04/22 07:44:49;;;;;;;17.50;2.77;;;11.00;68.70;;;;;;4374713;32;20520;-62
2021/04/22 07:47:21;;;;;;;13.63;3.30;;;11.20;68.30;;;;;;4375805;32;20148;-60
2021/04/22 07:49:53;;;;;;;8.40;2.57;;;10.60;69.00;;;;;;4375108;32;20194;-63
2021/04/22 07:52:22;;;;;;;13.40;3.07;;;10.80;69.70;;;;;;4375334;32;20165;-61
2021/04/22 07:55:01;;;;;;;13.53;2.77;;;10.60;70.60;;;;;;4374568;32;20152;-64
2021/04/22 07:57:28;;;;;;;11.10;3.90;;;11.00;69.30;;;;;;4375592;32;20487;-63
2021/04/22 08:00:13;;;;;;;7.50;2.33;;;10.80;68.30;;;;;;4374792;32;20174;-64
2021/04/22 08:02:42;;;;;;;8.87;2.60;;;10.40;71.10;;;;;;4376014;32;20628;-62
2021/04/22 08:05:11;;;;;;;10.20;2.73;;;10.90;70.10;;;;;;4374596;32;20172;-63
2021/04/22 08:07:38;;;;;;;12.70;2.43;;;11.40;66.50;;;;;;4374476;32;20165;-62
2021/04/22 08:10:08;;;;;;;9.87;2.30;;;12.40;63.40;;;;;;4374770;32;20182;-60
2021/04/22 08:12:40;;;;;;;8.80;2.50;;;13.20;62.20;;;;;;4374763;32;20158;-62
2021/04/22 08:15:13;;;;;;;8.30;2.80;;;16.60;58.30;;;;;;4375288;32;20152;-62
2021/04/22 08:17:41;;;;;;;9.93;2.90;;;16.80;49.60;;;;;;4376784;32;20591;-58
2021/04/22 08:20:10;;;;;;;8.17;2.67;;;14.50;52.40;;;;;;4371596;32;20198;-62
2021/04/22 08:22:38;;;;;;;10.43;2.60;;;12.70;60.80;;;;;;4362981;32;21069;-59
2021/04/22 08:25:08;;;;;;;13.17;2.93;;;12.10;64.90;;;;;;4370058;32;20247;-62
2021/04/22 08:27:52;;;;;;;7.17;2.70;;;12.00;65.00;;;;;;4365526;32;20246;-63
2021/04/22 08:30:25;;;;;;;8.40;2.50;;;12.40;62.90;;;;;;4369492;32;20155;-61
2021/04/22 08:32:57;;;;;;;6.93;2.63;;;14.30;61.30;;;;;;4372893;32;20434;-62
2021/04/22 08:35:24;;;;;;;12.27;2.60;;;15.00;55.50;;;;;;4374392;32;20152;-64
2021/04/22 08:37:51;;;;;;;12.53;2.73;;;13.70;56.40;;;;;;4375262;32;20207;-61
2021/04/22 08:40:19;;;;;;;10.83;2.90;;;12.20;63.40;;;;;;4372661;32;20208;-62
2021/04/22 08:49:54;;;;;;;7.03;1.70;;;17.30;52.40;;;;;;4359838;33;20207;-61
2021/04/22 08:52:36;;;;;;;11.30;2.73;;;17.10;48.10;;;;;;4368515;32;20180;-61
2021/04/22 08:55:13;;;;;;;9.40;2.80;;;16.00;51.50;;;;;;4374936;32;20207;-60
2021/04/22 08:57:49;;;;;;;13.17;3.17;;;14.10;56.00;;;;;;4379960;32;20156;-60
2021/04/22 09:00:25;;;;;;;16.00;3.10;;;13.00;60.70;;;;;;4379888;32;20194;-61
2021/04/22 09:03:08;;;;;;;10.77;2.80;;;12.70;62.00;;;;;;4374291;32;20153;-60
2021/04/22 09:05:59;;;;;;;14.37;3.00;;;13.10;61.20;;;;;;4375297;32;20153;-61
2021/04/22 09:08:53;;;;;;;9.50;2.40;;;12.60;62.70;;;;;;4375444;32;20598;-61
2021/04/22 09:11:50;;;;;;;10.43;2.63;;;12.50;62.80;;;;;;4356330;32;20177;-60
2021/04/22 09:14:22;;;;;;;9.83;2.57;;;12.70;63.10;;;;;;4342908;33;20179;-61
2021/04/22 09:16:59;;;;;;;9.53;2.60;;;12.80;62.30;;;;;;4342917;33;20175;-60
2021/04/22 09:19:30;;;;;;;7.83;2.23;;;13.40;61.90;;;;;;4343472;33;20165;-62
2021/04/22 09:22:07;;;;;;;8.63;2.80;;;14.30;59.80;;;;;;4345508;32;20235;-61
2021/04/22 09:24:45;;;;;;;7.17;2.63;;;14.70;55.80;;;;;;4342886;33;20528;-61
2021/04/22 09:27:19;;;;;;;9.27;2.90;;;14.60;57.10;;;;;;4345725;33;20179;-61
2021/04/22 09:29:59;;;;;;;10.37;3.23;;;15.10;56.10;;;;;;4347169;33;20182;-61
2021/04/22 09:32:43;;;;;;;8.23;2.70;;;14.70;54.50;;;;;;4346708;32;20165;-61
2021/04/22 09:35:16;;;;;;;7.10;2.07;;;14.90;53.90;;;;;;4345634;33;20624;-61
2021/04/22 09:37:49;;;;;;;11.20;2.60;;;14.30;55.40;;;;;;4345327;33;20621;-61
2021/04/22 09:40:25;;;;;;;6.57;2.57;;;13.70;56.80;;;;;;4345327;33;20184;-61
2021/04/22 09:43:00;;;;;;;7.43;2.53;;;14.40;55.60;;;;;;4347205;32;20172;-61
2021/04/22 09:48:36;;;;;;;9.87;2.53;;;14.30;56.30;;;;;;4353605;33;20222;-62
2021/04/22 09:51:13;;;;;;;8.57;2.97;;;14.20;56.60;;;;;;4362611;32;20208;-62
2021/04/22 09:53:58;;;;;;;9.33;2.43;;;14.50;56.90;;;;;;4372974;32;20164;-62
2021/04/22 09:56:43;;;;;;;10.67;3.30;;;14.60;55.40;;;;;;4376934;32;20203;-62
2021/04/22 09:59:17;;;;;;;14.90;2.90;;;14.70;54.00;;;;;;4376921;32;20153;-62
2021/04/22 10:02:17;;;;;;;11.27;2.70;;;15.00;53.90;;;;;;4377076;32;20522;-61
2021/04/22 10:04:56;;;;;;;8.53;2.93;;;15.00;55.50;;;;;;4370430;32;20195;-62
2021/04/22 10:07:29;;;;;;;9.83;3.23;;;14.50;55.90;;;;;;4374999;32;20461;-60
2021/04/22 10:10:29;;;;;;;9.73;2.67;;;14.60;54.60;;;;;;4374823;32;20164;-61
2021/04/22 10:13:19;;;;;;;9.33;2.67;;;14.10;55.80;;;;;;4360987;32;20184;-60
2021/04/22 10:18:57;;;;;;;8.60;2.97;;;13.60;60.20;;;;;;4360065;32;20173;-60
2021/04/22 10:21:46;;;;;;;7.70;2.77;;;14.30;57.20;;;;;;4367040;32;20266;-62
2021/04/22 10:24:16;;;;;;;10.57;2.60;;;13.20;57.50;;;;;;4374307;32;20157;-61
2021/04/22 10:26:58;;;;;;;8.90;2.80;;;13.60;58.10;;;;;;4374862;32;20608;-60
2021/04/22 10:29:37;;;;;;;13.43;2.70;;;13.20;57.20;;;;;;4373939;32;20174;-60
2021/04/22 10:32:08;;;;;;;10.83;3.00;;;13.00;59.20;;;;;;4374385;32;20180;-61
2021/04/22 10:34:51;;;;;;;9.10;2.30;;;12.70;58.60;;;;;;4374719;32;20183;-61
2021/04/22 10:37:44;;;;;;;9.20;2.93;;;12.60;62.00;;;;;;4375152;32;20211;-62
2021/04/22 10:40:17;;;;;;;8.70;3.03;;;13.60;60.20;;;;;;4329528;33;20161;-62
2021/04/22 10:42:58;;;;;;;8.40;3.07;;;14.40;57.40;;;;;;4344995;33;20184;-60
2021/04/22 10:45:30;;;;;;;11.83;2.77;;;14.10;55.90;;;;;;4344895;33;20186;-61
2021/04/22 10:48:01;;;;;;;9.07;2.90;;;13.20;57.10;;;;;;4344010;33;20161;-61
2021/04/22 10:50:54;;;;;;;5.90;2.47;;;13.00;59.40;;;;;;4343123;33;20191;-61
2021/04/22 10:53:23;;;;;;;9.67;2.57;;;13.40;60.40;;;;;;4300140;33;20194;-61
2021/04/22 10:56:15;;;;;;;8.50;3.07;;;13.80;57.80;;;;;;4301277;33;20170;-60
2021/04/22 10:58:44;;;;;;;9.67;2.70;;;13.50;58.50;;;;;;4300542;33;20211;-60
2021/04/22 11:01:28;;;;;;;6.97;2.70;;;13.20;59.00;;;;;;4300526;33;20200;-61
2021/04/22 11:04:11;;;;;;;9.13;2.90;;;13.00;60.00;;;;;;4299828;33;20161;-61
2021/04/22 11:07:04;;;;;;;9.03;2.90;;;13.00;60.00;;;;;;4292566;33;20185;-61
2021/04/22 11:09:35;;;;;;;9.50;2.70;;;13.00;60.20;;;;;;4300313;33;20154;-60
2021/04/22 11:12:12;;;;;;;8.37;3.20;;;13.70;60.10;;;;;;4300480;33;20205;-61
2021/04/22 11:14:52;;;;;;;7.53;2.50;;;13.60;57.70;;;;;;4300071;33;20166;-62
2021/04/22 11:17:19;;;;;;;12.57;2.77;;;13.50;57.70;;;;;;4324647;33;20165;-61
2021/04/22 11:19:52;;;;;;;7.37;2.67;;;13.00;58.00;;;;;;4343397;33;20169;-61
2021/04/22 11:22:21;;;;;;;7.87;2.87;;;12.90;59.10;;;;;;4343517;33;20176;-61
2021/04/22 11:25:04;;;;;;;9.70;2.83;;;13.00;59.40;;;;;;4343851;33;20165;-61
2021/04/22 11:27:53;;;;;;;8.73;2.40;;;12.90;59.90;;;;;;4344390;33;20157;-60
2021/04/22 11:30:42;;;;;;;9.33;3.53;;;13.10;59.00;;;;;;4374593;32;20175;-60
2021/04/22 11:33:14;;;;;;;11.50;2.80;;;12.70;59.50;;;;;;4360690;32;20213;-62
2021/04/22 11:35:57;;;;;;;14.03;3.20;;;12.30;59.70;;;;;;4372895;32;20156;-61
2021/04/22 11:38:28;;;;;;;10.03;2.90;;;11.90;60.90;;;;;;4375527;32;20206;-61
2021/04/22 11:40:58;;;;;;;10.03;3.23;;;12.30;61.60;;;;;;4374763;32;20184;-62
2021/04/22 11:43:37;;;;;;;12.20;2.57;;;12.70;60.40;;;;;;4375512;32;20215;-61
2021/04/22 11:46:15;;;;;;;9.40;2.90;;;13.00;59.70;;;;;;4375470;32;20206;-60
2021/04/22 11:48:46;;;;;;;12.03;3.73;;;13.40;60.90;;;;;;4375585;32;20166;-62
2021/04/22 11:51:15;;;;;;;12.57;3.53;;;13.20;60.00;;;;;;4370145;32;20165;-62
2021/04/22 11:54:02;;;;;;;12.53;3.23;;;13.10;59.70;;;;;;4377305;32;20222;-60
2021/04/22 11:56:31;;;;;;;8.40;2.60;;;12.50;60.80;;;;;;4379944;32;20611;-61
2021/04/22 11:59:01;;;;;;;6.70;2.80;;;12.80;60.40;;;;;;4375632;32;20171;-60
2021/04/22 12:01:43;;;;;;;10.83;2.73;;;13.00;61.20;;;;;;4373740;32;20194;-61
2021/04/22 12:04:23;;;;;;;11.23;3.03;;;13.60;59.90;;;;;;4370005;32;20218;-60
2021/04/22 12:06:51;;;;;;;11.63;2.63;;;13.50;59.00;;;;;;4374316;32;20166;-61
2021/04/22 12:09:33;;;;;;;7.13;2.70;;;13.00;61.10;;;;;;4375515;32;20152;-62
2021/04/22 12:12:08;;;;;;;6.57;2.60;;;13.10;60.70;;;;;;4375753;32;20153;-61
2021/04/22 12:14:37;;;;;;;6.80;2.77;;;12.80;61.50;;;;;;4371412;32;20287;-60
2021/04/22 12:17:07;;;;;;;8.23;2.70;;;12.30;63.20;;;;;;4374283;32;20171;-61
2021/04/22 12:19:34;;;;;;;7.37;2.60;;;12.50;63.20;;;;;;4375871;32;20148;-62
2021/04/22 12:22:03;;;;;;;11.57;2.80;;;12.70;62.60;;;;;;4374297;32;20171;-61
2021/04/22 12:24:30;;;;;;;13.30;2.73;;;12.80;61.20;;;;;;4374422;32;20160;-61
2021/04/22 12:26:57;;;;;;;8.43;3.10;;;12.90;61.00;;;;;;4372456;32;20575;-61
2021/04/22 12:29:32;;;;;;;10.93;2.70;;;13.00;60.80;;;;;;4373996;32;20177;-62
2021/04/22 12:32:05;;;;;;;9.57;2.67;;;12.90;59.60;;;;;;4372234;32;20166;-61
2021/04/22 12:34:36;;;;;;;13.03;2.60;;;13.00;59.70;;;;;;4373812;32;20260;-64
2021/04/22 12:37:05;;;;;;;12.60;2.97;;;12.90;60.10;;;;;;4372425;32;20179;-66
2021/04/22 12:39:35;;;;;;;8.33;2.70;;;12.80;61.00;;;;;;4374230;32;20246;-61
2021/04/22 12:42:07;;;;;;;9.27;2.87;;;12.90;60.20;;;;;;4373622;32;20458;-61
2021/04/22 12:44:37;;;;;;;9.83;2.33;;;12.70;60.80;;;;;;4374438;32;20178;-60
2021/04/22 12:47:06;;;;;;;9.47;2.20;;;12.50;61.20;;;;;;4374362;32;20159;-59
2021/04/22 12:49:46;;;;;;;9.13;3.00;;;12.60;60.40;;;;;;4374557;32;20271;-61
2021/04/22 12:52:21;;;;;;;10.47;2.60;;;12.60;60.20;;;;;;4373607;32;20204;-63
2021/04/22 12:54:54;;;;;;;7.33;2.30;;;12.60;60.10;;;;;;4374968;32;20147;-62
2021/04/22 12:57:20;;;;;;;9.10;2.50;;;12.80;59.80;;;;;;4375143;32;20196;-62
2021/04/22 12:59:52;;;;;;;9.87;3.10;;;12.80;60.90;;;;;;4376737;32;20171;-61
2021/04/22 13:02:18;;;;;;;8.13;2.53;;;12.90;60.80;;;;;;4377938;32;20439;-62
2021/04/22 13:05:04;;;;;;;10.20;2.80;;;13.10;61.20;;;;;;4377676;32;20219;-62
2021/04/22 13:07:35;;;;;;;6.07;2.93;;;13.10;62.20;;;;;;4377641;32;20602;-63
2021/04/22 13:10:08;;;;;;;8.73;2.77;;;13.10;61.20;;;;;;4378585;32;20146;-61
2021/04/22 13:12:38;;;;;;;10.03;2.40;;;13.10;61.80;;;;;;4375100;32;20185;-66
2021/04/22 13:15:08;;;;;;;7.63;2.57;;;12.80;62.40;;;;;;4375987;32;20191;-60
2021/04/22 13:17:40;;;;;;;9.80;2.57;;;12.80;63.10;;;;;;4376932;32;20156;-61